sensor_id;sensor_type;location;lat;lon;timestamp;temperature;humidity
52849;DHT22;38714;53.180;5.812;2024-03-22T00:01:58;9.80;99.90
52849;DHT22;38714;53.180;5.812;2024-03-22T00:04:25;9.80;99.90
52849;DHT22;38714;53.180;5.812;2024-03-22T00:06:51;9.80;99.90
52849;DHT22;38714;53.180;5.812;2024-03-22T00:09:16;9.80;99.90
52849;DHT22;38714;53.180;5.812;2024-03-22T00:11:43;9.80;99.90
52849;DHT22;38714;53.180;5.812;2024-03-22T00:14:10;9.80;99.90
52849;DHT22;38714;53.180;5.812;2024-03-22T00:16:36;9.80;99.90
52849;DHT22;38714;53.180;5.812;2024-03-22T00:19:02;9.80;99.90
52849;DHT22;38714;53.180;5.812;2024-03-22T00:21:27;9.90;99.90
52849;DHT22;38714;53.180;5.812;2024-03-22T00:23:53;9.80;99.90
52849;DHT22;38714;53.180;5.812;2024-03-22T00:26:19;9.90;99.90
52849;DHT22;38714;53.180;5.812;2024-03-22T00:28:45;9.80;99.90
52849;DHT22;38714;53.180;5.812;2024-03-22T00:31:10;9.80;99.90
52849;DHT22;38714;53.180;5.812;2024-03-22T00:33:36;9.90;99.90
52849;DHT22;38714;53.180;5.812;2024-03-22T00:36:01;9.90;99.90
52849;DHT22;38714;53.180;5.812;2024-03-22T00:38:27;9.90;99.90
52849;DHT22;38714;53.180;5.812;2024-03-22T00:40:53;9.90;99.90
52849;DHT22;38714;53.180;5.812;2024-03-22T00:43:20;9.90;99.90
52849;DHT22;38714;53.180;5.812;2024-03-22T00:45:45;9.90;99.90
52849;DHT22;38714;53.180;5.812;2024-03-22T00:48:11;9.90;99.90
52849;DHT22;38714;53.180;5.812;2024-03-22T00:50:37;9.90;99.90
52849;DHT22;38714;53.180;5.812;2024-03-22T00:53:02;9.90;99.90
52849;DHT22;38714;53.180;5.812;2024-03-22T00:55:29;10.00;99.90
52849;DHT22;38714;53.180;5.812;2024-03-22T00:57:55;10.00;99.90
52849;DHT22;38714;53.180;5.812;2024-03-22T01:00:20;10.00;99.90
52849;DHT22;38714;53.180;5.812;2024-03-22T01:02:46;10.00;99.90
52849;DHT22;38714;53.180;5.812;2024-03-22T01:05:12;10.00;99.90
52849;DHT22;38714;53.180;5.812;2024-03-22T01:07:37;10.00;99.90
52849;DHT22;38714;53.180;5.812;2024-03-22T01:10:04;10.00;99.90
52849;DHT22;38714;53.180;5.812;2024-03-22T01:12:30;10.00;99.90
52849;DHT22;38714;53.180;5.812;2024-03-22T01:14:56;10.00;99.90
52849;DHT22;38714;53.180;5.812;2024-03-22T01:17:22;10.10;99.90
52849;DHT22;38714;53.180;5.812;2024-03-22T01:19:48;10.10;99.90
52849;DHT22;38714;53.180;5.812;2024-03-22T01:22:13;10.10;99.90
52849;DHT22;38714;53.180;5.812;2024-03-22T01:24:39;10.10;99.90
52849;DHT22;38714;53.180;5.812;2024-03-22T01:27:05;10.10;99.90
52849;DHT22;38714;53.180;5.812;2024-03-22T01:29:30;10.10;99.90
52849;DHT22;38714;53.180;5.812;2024-03-22T01:31:58;10.10;99.90
52849;DHT22;38714;53.180;5.812;2024-03-22T01:34:23;10.10;99.90
52849;DHT22;38714;53.180;5.812;2024-03-22T01:36:51;10.10;99.90
52849;DHT22;38714;53.180;5.812;2024-03-22T01:39:16;10.10;99.90
52849;DHT22;38714;53.180;5.812;2024-03-22T01:41:43;10.10;99.90
52849;DHT22;38714;53.180;5.812;2024-03-22T01:44:09;10.10;99.90
52849;DHT22;38714;53.180;5.812;2024-03-22T01:46:35;10.10;99.90
52849;DHT22;38714;53.180;5.812;2024-03-22T01:49:01;10.20;99.90
52849;DHT22;38714;53.180;5.812;2024-03-22T01:51:26;10.10;99.90
52849;DHT22;38714;53.180;5.812;2024-03-22T01:53:53;10.10;99.90
52849;DHT22;38714;53.180;5.812;2024-03-22T01:56:19;10.10;99.90
52849;DHT22;38714;53.180;5.812;2024-03-22T01:58:45;10.10;99.90
52849;DHT22;38714;53.180;5.812;2024-03-22T02:01:11;10.10;99.90
52849;DHT22;38714;53.180;5.812;2024-03-22T02:03:36;10.10;99.90
52849;DHT22;38714;53.180;5.812;2024-03-22T02:06:02;10.20;99.90
52849;DHT22;38714;53.180;5.812;2024-03-22T02:08:28;10.10;99.90
52849;DHT22;38714;53.180;5.812;2024-03-22T02:10:53;10.10;99.90
52849;DHT22;38714;53.180;5.812;2024-03-22T02:13:19;10.20;99.90
52849;DHT22;38714;53.180;5.812;2024-03-22T02:15:44;10.20;99.90
52849;DHT22;38714;53.180;5.812;2024-03-22T02:18:10;10.20;99.90
52849;DHT22;38714;53.180;5.812;2024-03-22T02:20:36;10.20;99.90
52849;DHT22;38714;53.180;5.812;2024-03-22T02:23:01;10.20;99.90
52849;DHT22;38714;53.180;5.812;2024-03-22T02:25:27;10.10;99.90
52849;DHT22;38714;53.180;5.812;2024-03-22T02:27:52;10.10;99.90
52849;DHT22;38714;53.180;5.812;2024-03-22T02:30:18;10.10;99.90
52849;DHT22;38714;53.180;5.812;2024-03-22T02:32:44;10.10;99.90
52849;DHT22;38714;53.180;5.812;2024-03-22T02:35:09;10.10;99.90
52849;DHT22;38714;53.180;5.812;2024-03-22T02:37:35;10.10;99.90
52849;DHT22;38714;53.180;5.812;2024-03-22T02:40:01;10.10;99.90
52849;DHT22;38714;53.180;5.812;2024-03-22T02:42:26;10.10;99.90
52849;DHT22;38714;53.180;5.812;2024-03-22T02:44:52;10.10;99.90
52849;DHT22;38714;53.180;5.812;2024-03-22T02:47:18;10.10;99.90
52849;DHT22;38714;53.180;5.812;2024-03-22T02:49:44;10.10;99.90
52849;DHT22;38714;53.180;5.812;2024-03-22T02:52:10;10.10;99.90
52849;DHT22;38714;53.180;5.812;2024-03-22T02:54:35;10.10;99.90
52849;DHT22;38714;53.180;5.812;2024-03-22T02:57:01;10.10;99.90
52849;DHT22;38714;53.180;5.812;2024-03-22T02:59:27;10.10;99.90
52849;DHT22;38714;53.180;5.812;2024-03-22T03:01:53;10.10;99.90
52849;DHT22;38714;53.180;5.812;2024-03-22T03:04:18;10.10;99.90
52849;DHT22;38714;53.180;5.812;2024-03-22T03:06:44;10.10;99.90
52849;DHT22;38714;53.180;5.812;2024-03-22T03:09:11;10.10;99.90
52849;DHT22;38714;53.180;5.812;2024-03-22T03:11:39;10.00;99.90
52849;DHT22;38714;53.180;5.812;2024-03-22T03:14:05;10.10;99.90
52849;DHT22;38714;53.180;5.812;2024-03-22T03:16:30;10.10;99.90
52849;DHT22;38714;53.180;5.812;2024-03-22T03:18:56;10.10;99.90
52849;DHT22;38714;53.180;5.812;2024-03-22T03:21:21;10.10;99.90
52849;DHT22;38714;53.180;5.812;2024-03-22T03:23:47;10.10;99.90
52849;DHT22;38714;53.180;5.812;2024-03-22T03:26:12;10.10;99.90
52849;DHT22;38714;53.180;5.812;2024-03-22T03:28:39;10.10;99.90
52849;DHT22;38714;53.180;5.812;2024-03-22T03:31:05;10.10;99.90
52849;DHT22;38714;53.180;5.812;2024-03-22T03:33:31;10.10;99.90
52849;DHT22;38714;53.180;5.812;2024-03-22T03:35:56;10.10;99.90
52849;DHT22;38714;53.180;5.812;2024-03-22T03:38:22;10.10;99.90
52849;DHT22;38714;53.180;5.812;2024-03-22T03:40:48;10.10;99.90
52849;DHT22;38714;53.180;5.812;2024-03-22T03:43:13;10.10;99.90
52849;DHT22;38714;53.180;5.812;2024-03-22T03:45:39;10.10;99.90
52849;DHT22;38714;53.180;5.812;2024-03-22T03:48:05;10.10;99.90
52849;DHT22;38714;53.180;5.812;2024-03-22T03:50:31;10.10;99.90
52849;DHT22;38714;53.180;5.812;2024-03-22T03:52:56;10.10;99.90
52849;DHT22;38714;53.180;5.812;2024-03-22T03:55:22;10.10;99.90
52849;DHT22;38714;53.180;5.812;2024-03-22T03:57:50;10.00;99.90
52849;DHT22;38714;53.180;5.812;2024-03-22T04:00:16;10.10;99.90
52849;DHT22;38714;53.180;5.812;2024-03-22T04:02:41;10.10;99.90
52849;DHT22;38714;53.180;5.812;2024-03-22T04:05:07;10.10;99.90
52849;DHT22;38714;53.180;5.812;2024-03-22T04:07:33;10.10;99.90
52849;DHT22;38714;53.180;5.812;2024-03-22T04:09:58;10.10;99.90
52849;DHT22;38714;53.180;5.812;2024-03-22T04:12:26;10.10;99.90
52849;DHT22;38714;53.180;5.812;2024-03-22T04:14:52;10.10;99.90
52849;DHT22;38714;53.180;5.812;2024-03-22T04:17:18;10.10;99.90
52849;DHT22;38714;53.180;5.812;2024-03-22T04:19:44;10.10;99.90
52849;DHT22;38714;53.180;5.812;2024-03-22T04:22:09;10.10;99.90
52849;DHT22;38714;53.180;5.812;2024-03-22T04:24:35;10.00;99.90
52849;DHT22;38714;53.180;5.812;2024-03-22T04:27:00;10.00;99.90
52849;DHT22;38714;53.180;5.812;2024-03-22T04:29:26;10.10;99.90
52849;DHT22;38714;53.180;5.812;2024-03-22T04:31:52;10.10;99.90
52849;DHT22;38714;53.180;5.812;2024-03-22T04:34:17;10.10;99.90
52849;DHT22;38714;53.180;5.812;2024-03-22T04:36:43;10.00;99.90
52849;DHT22;38714;53.180;5.812;2024-03-22T04:39:09;10.00;99.90
52849;DHT22;38714;53.180;5.812;2024-03-22T04:41:35;10.10;99.90
52849;DHT22;38714;53.180;5.812;2024-03-22T04:44:00;10.10;99.90
52849;DHT22;38714;53.180;5.812;2024-03-22T04:46:26;10.10;99.90
52849;DHT22;38714;53.180;5.812;2024-03-22T04:48:52;10.10;99.90
52849;DHT22;38714;53.180;5.812;2024-03-22T04:51:17;10.10;99.90
52849;DHT22;38714;53.180;5.812;2024-03-22T04:53:43;10.10;99.90
52849;DHT22;38714;53.180;5.812;2024-03-22T04:56:09;10.10;99.90
52849;DHT22;38714;53.180;5.812;2024-03-22T04:58:35;10.10;99.90
52849;DHT22;38714;53.180;5.812;2024-03-22T05:01:01;10.10;99.90
52849;DHT22;38714;53.180;5.812;2024-03-22T05:03:26;10.10;99.90
52849;DHT22;38714;53.180;5.812;2024-03-22T05:05:52;10.10;99.90
52849;DHT22;38714;53.180;5.812;2024-03-22T05:08:17;10.10;99.90
52849;DHT22;38714;53.180;5.812;2024-03-22T05:10:43;10.10;99.90
52849;DHT22;38714;53.180;5.812;2024-03-22T05:13:09;10.10;99.90
52849;DHT22;38714;53.180;5.812;2024-03-22T05:15:34;10.10;99.90
52849;DHT22;38714;53.180;5.812;2024-03-22T05:18:00;10.10;99.90
52849;DHT22;38714;53.180;5.812;2024-03-22T05:20:26;10.00;99.90
52849;DHT22;38714;53.180;5.812;2024-03-22T05:22:51;10.10;99.90
52849;DHT22;38714;53.180;5.812;2024-03-22T05:25:17;10.00;99.90
52849;DHT22;38714;53.180;5.812;2024-03-22T05:27:43;10.00;99.90
52849;DHT22;38714;53.180;5.812;2024-03-22T05:30:10;10.00;99.90
52849;DHT22;38714;53.180;5.812;2024-03-22T05:32:36;10.00;99.90
52849;DHT22;38714;53.180;5.812;2024-03-22T05:35:01;10.00;99.90
52849;DHT22;38714;53.180;5.812;2024-03-22T05:37:27;10.00;99.90
52849;DHT22;38714;53.180;5.812;2024-03-22T05:39:52;10.00;99.90
52849;DHT22;38714;53.180;5.812;2024-03-22T05:42:18;10.00;99.90
52849;DHT22;38714;53.180;5.812;2024-03-22T05:44:47;9.90;99.90
52849;DHT22;38714;53.180;5.812;2024-03-22T05:47:13;9.90;99.90
52849;DHT22;38714;53.180;5.812;2024-03-22T05:49:39;9.90;99.90
52849;DHT22;38714;53.180;5.812;2024-03-22T05:52:05;9.90;99.90
52849;DHT22;38714;53.180;5.812;2024-03-22T05:54:30;9.90;99.90
52849;DHT22;38714;53.180;5.812;2024-03-22T05:56:56;9.90;99.90
52849;DHT22;38714;53.180;5.812;2024-03-22T05:59:22;9.90;99.90
52849;DHT22;38714;53.180;5.812;2024-03-22T06:01:47;9.90;99.90
52849;DHT22;38714;53.180;5.812;2024-03-22T06:04:13;9.90;99.90
52849;DHT22;38714;53.180;5.812;2024-03-22T06:06:38;9.80;99.90
52849;DHT22;38714;53.180;5.812;2024-03-22T06:09:04;9.80;99.90
52849;DHT22;38714;53.180;5.812;2024-03-22T06:11:34;9.90;99.90
52849;DHT22;38714;53.180;5.812;2024-03-22T06:14:00;9.80;99.90
52849;DHT22;38714;53.180;5.812;2024-03-22T06:16:25;9.90;99.90
52849;DHT22;38714;53.180;5.812;2024-03-22T06:18:51;9.80;99.90
52849;DHT22;38714;53.180;5.812;2024-03-22T06:21:17;9.80;99.90
52849;DHT22;38714;53.180;5.812;2024-03-22T06:23:49;9.90;99.90
52849;DHT22;38714;53.180;5.812;2024-03-22T06:26:14;9.80;99.90
52849;DHT22;38714;53.180;5.812;2024-03-22T06:28:40;9.90;99.90
52849;DHT22;38714;53.180;5.812;2024-03-22T06:31:06;9.90;99.90
52849;DHT22;38714;53.180;5.812;2024-03-22T06:33:31;9.90;99.90
52849;DHT22;38714;53.180;5.812;2024-03-22T06:35:57;9.80;99.90
52849;DHT22;38714;53.180;5.812;2024-03-22T06:38:22;9.80;99.90
52849;DHT22;38714;53.180;5.812;2024-03-22T06:40:48;9.80;99.90
52849;DHT22;38714;53.180;5.812;2024-03-22T06:43:14;9.80;99.90
52849;DHT22;38714;53.180;5.812;2024-03-22T06:45:39;9.90;99.90
52849;DHT22;38714;53.180;5.812;2024-03-22T06:48:05;9.80;99.90
52849;DHT22;38714;53.180;5.812;2024-03-22T06:50:30;9.80;99.90
52849;DHT22;38714;53.180;5.812;2024-03-22T06:52:56;9.80;99.90
52849;DHT22;38714;53.180;5.812;2024-03-22T06:55:22;9.80;99.90
52849;DHT22;38714;53.180;5.812;2024-03-22T06:57:49;9.80;99.90
52849;DHT22;38714;53.180;5.812;2024-03-22T07:00:15;9.80;99.90
52849;DHT22;38714;53.180;5.812;2024-03-22T07:02:41;9.80;99.90
52849;DHT22;38714;53.180;5.812;2024-03-22T07:05:08;9.80;99.90
52849;DHT22;38714;53.180;5.812;2024-03-22T07:07:34;9.80;99.90
52849;DHT22;38714;53.180;5.812;2024-03-22T07:10:00;9.80;99.90
52849;DHT22;38714;53.180;5.812;2024-03-22T07:12:25;9.80;99.90
52849;DHT22;38714;53.180;5.812;2024-03-22T07:14:51;9.70;99.90
52849;DHT22;38714;53.180;5.812;2024-03-22T07:17:17;9.70;99.90
52849;DHT22;38714;53.180;5.812;2024-03-22T07:19:42;9.70;99.90
52849;DHT22;38714;53.180;5.812;2024-03-22T07:22:08;9.70;99.90
52849;DHT22;38714;53.180;5.812;2024-03-22T07:24:34;9.80;99.90
52849;DHT22;38714;53.180;5.812;2024-03-22T07:26:59;9.80;99.90
52849;DHT22;38714;53.180;5.812;2024-03-22T07:29:25;9.70;99.90
52849;DHT22;38714;53.180;5.812;2024-03-22T07:31:50;9.70;99.90
52849;DHT22;38714;53.180;5.812;2024-03-22T07:34:16;9.70;99.90
52849;DHT22;38714;53.180;5.812;2024-03-22T07:36:42;9.70;99.90
52849;DHT22;38714;53.180;5.812;2024-03-22T07:39:07;9.70;99.90
52849;DHT22;38714;53.180;5.812;2024-03-22T07:41:33;9.70;99.90
52849;DHT22;38714;53.180;5.812;2024-03-22T07:44:00;9.70;99.90
52849;DHT22;38714;53.180;5.812;2024-03-22T07:46:26;9.70;99.90
52849;DHT22;38714;53.180;5.812;2024-03-22T07:48:52;9.70;99.90
52849;DHT22;38714;53.180;5.812;2024-03-22T07:51:17;9.70;99.90
52849;DHT22;38714;53.180;5.812;2024-03-22T07:53:43;9.70;99.90
52849;DHT22;38714;53.180;5.812;2024-03-22T07:56:09;9.70;99.90
52849;DHT22;38714;53.180;5.812;2024-03-22T07:58:34;9.70;99.90
52849;DHT22;38714;53.180;5.812;2024-03-22T08:01:00;9.70;99.90
52849;DHT22;38714;53.180;5.812;2024-03-22T08:03:25;9.70;99.90
52849;DHT22;38714;53.180;5.812;2024-03-22T08:05:51;9.70;99.90
52849;DHT22;38714;53.180;5.812;2024-03-22T08:08:17;9.70;99.90
52849;DHT22;38714;53.180;5.812;2024-03-22T08:10:43;9.70;99.90
52849;DHT22;38714;53.180;5.812;2024-03-22T08:13:08;9.70;99.90
52849;DHT22;38714;53.180;5.812;2024-03-22T08:15:35;9.70;99.90
52849;DHT22;38714;53.180;5.812;2024-03-22T08:18:01;9.70;99.90
52849;DHT22;38714;53.180;5.812;2024-03-22T08:20:26;9.70;99.90
52849;DHT22;38714;53.180;5.812;2024-03-22T08:22:52;9.70;99.90
52849;DHT22;38714;53.180;5.812;2024-03-22T08:25:17;9.60;99.90
52849;DHT22;38714;53.180;5.812;2024-03-22T08:27:46;9.70;99.90
52849;DHT22;38714;53.180;5.812;2024-03-22T08:30:12;9.70;99.90
52849;DHT22;38714;53.180;5.812;2024-03-22T08:32:38;9.70;99.90
52849;DHT22;38714;53.180;5.812;2024-03-22T08:35:04;9.70;99.90
52849;DHT22;38714;53.180;5.812;2024-03-22T08:37:30;9.70;99.90
52849;DHT22;38714;53.180;5.812;2024-03-22T08:39:56;9.70;99.90
52849;DHT22;38714;53.180;5.812;2024-03-22T08:42:21;9.70;99.90
52849;DHT22;38714;53.180;5.812;2024-03-22T08:44:47;9.70;99.90
52849;DHT22;38714;53.180;5.812;2024-03-22T08:47:12;9.70;99.90
52849;DHT22;38714;53.180;5.812;2024-03-22T08:49:38;9.80;99.90
52849;DHT22;38714;53.180;5.812;2024-03-22T08:52:04;9.70;99.90
52849;DHT22;38714;53.180;5.812;2024-03-22T08:54:30;9.70;99.90
52849;DHT22;38714;53.180;5.812;2024-03-22T08:56:55;9.70;99.90
52849;DHT22;38714;53.180;5.812;2024-03-22T08:59:21;9.70;99.90
52849;DHT22;38714;53.180;5.812;2024-03-22T09:01:48;9.70;99.90
52849;DHT22;38714;53.180;5.812;2024-03-22T09:04:14;9.70;99.90
52849;DHT22;38714;53.180;5.812;2024-03-22T09:06:40;9.70;99.90
52849;DHT22;38714;53.180;5.812;2024-03-22T09:09:06;9.70;99.90
52849;DHT22;38714;53.180;5.812;2024-03-22T09:11:33;9.70;99.90
52849;DHT22;38714;53.180;5.812;2024-03-22T09:13:59;9.70;99.90
52849;DHT22;38714;53.180;5.812;2024-03-22T09:16:24;9.70;99.90
52849;DHT22;38714;53.180;5.812;2024-03-22T09:18:50;9.70;99.90
52849;DHT22;38714;53.180;5.812;2024-03-22T09:21:16;9.70;99.90
52849;DHT22;38714;53.180;5.812;2024-03-22T09:23:41;9.70;99.90
52849;DHT22;38714;53.180;5.812;2024-03-22T09:26:07;9.70;99.90
52849;DHT22;38714;53.180;5.812;2024-03-22T09:28:33;9.70;99.90
52849;DHT22;38714;53.180;5.812;2024-03-22T09:31:06;9.70;99.90
52849;DHT22;38714;53.180;5.812;2024-03-22T09:33:35;9.70;99.90
52849;DHT22;38714;53.180;5.812;2024-03-22T09:36:02;9.70;99.90
52849;DHT22;38714;53.180;5.812;2024-03-22T09:38:27;9.70;99.90
52849;DHT22;38714;53.180;5.812;2024-03-22T09:40:53;9.70;99.90
52849;DHT22;38714;53.180;5.812;2024-03-22T09:43:21;9.70;99.90
52849;DHT22;38714;53.180;5.812;2024-03-22T09:45:47;9.80;99.90
52849;DHT22;38714;53.180;5.812;2024-03-22T09:48:15;9.80;99.90
52849;DHT22;38714;53.180;5.812;2024-03-22T09:50:42;9.80;99.90
52849;DHT22;38714;53.180;5.812;2024-03-22T09:53:08;9.80;99.90
52849;DHT22;38714;53.180;5.812;2024-03-22T09:55:36;9.80;99.90
52849;DHT22;38714;53.180;5.812;2024-03-22T09:58:02;9.80;99.90
52849;DHT22;38714;53.180;5.812;2024-03-22T10:00:29;9.80;99.90
52849;DHT22;38714;53.180;5.812;2024-03-22T10:02:56;9.80;99.90
52849;DHT22;38714;53.180;5.812;2024-03-22T10:05:23;9.90;99.90
52849;DHT22;38714;53.180;5.812;2024-03-22T10:07:49;9.80;99.90
52849;DHT22;38714;53.180;5.812;2024-03-22T10:10:15;9.80;99.90
52849;DHT22;38714;53.180;5.812;2024-03-22T10:12:41;9.90;99.90
52849;DHT22;38714;53.180;5.812;2024-03-22T10:15:07;9.80;99.90
52849;DHT22;38714;53.180;5.812;2024-03-22T10:17:38;9.80;99.90
52849;DHT22;38714;53.180;5.812;2024-03-22T10:20:05;9.90;99.90
52849;DHT22;38714;53.180;5.812;2024-03-22T10:22:38;9.90;99.90
52849;DHT22;38714;53.180;5.812;2024-03-22T10:25:07;9.90;99.90
52849;DHT22;38714;53.180;5.812;2024-03-22T10:27:32;9.90;99.90
52849;DHT22;38714;53.180;5.812;2024-03-22T10:29:58;9.90;99.90
52849;DHT22;38714;53.180;5.812;2024-03-22T10:32:27;9.90;99.90
52849;DHT22;38714;53.180;5.812;2024-03-22T10:34:53;9.90;99.90
52849;DHT22;38714;53.180;5.812;2024-03-22T10:37:20;9.90;99.90
52849;DHT22;38714;53.180;5.812;2024-03-22T10:39:49;9.90;99.90
52849;DHT22;38714;53.180;5.812;2024-03-22T10:42:15;9.90;99.90
52849;DHT22;38714;53.180;5.812;2024-03-22T10:44:42;9.90;99.90
52849;DHT22;38714;53.180;5.812;2024-03-22T10:47:09;9.90;99.90
52849;DHT22;38714;53.180;5.812;2024-03-22T10:49:37;9.90;99.90
52849;DHT22;38714;53.180;5.812;2024-03-22T10:52:05;10.00;99.90
52849;DHT22;38714;53.180;5.812;2024-03-22T10:54:39;10.00;99.90
52849;DHT22;38714;53.180;5.812;2024-03-22T10:57:07;10.00;99.90
52849;DHT22;38714;53.180;5.812;2024-03-22T10:59:34;10.00;99.90
52849;DHT22;38714;53.180;5.812;2024-03-22T11:02:04;10.10;99.90
52849;DHT22;38714;53.180;5.812;2024-03-22T11:04:32;10.10;99.90
52849;DHT22;38714;53.180;5.812;2024-03-22T11:06:58;10.10;99.90
52849;DHT22;38714;53.180;5.812;2024-03-22T11:09:26;10.10;99.90
52849;DHT22;38714;53.180;5.812;2024-03-22T11:11:53;10.10;99.90
52849;DHT22;38714;53.180;5.812;2024-03-22T11:14:19;10.10;99.90
52849;DHT22;38714;53.180;5.812;2024-03-22T11:16:49;10.10;99.90
52849;DHT22;38714;53.180;5.812;2024-03-22T11:19:16;10.00;99.90
52849;DHT22;38714;53.180;5.812;2024-03-22T11:21:41;10.10;99.90
52849;DHT22;38714;53.180;5.812;2024-03-22T11:24:07;10.10;99.90
52849;DHT22;38714;53.180;5.812;2024-03-22T11:26:33;10.10;99.90
52849;DHT22;38714;53.180;5.812;2024-03-22T11:28:59;10.10;99.90
52849;DHT22;38714;53.180;5.812;2024-03-22T11:31:25;10.10;99.90
52849;DHT22;38714;53.180;5.812;2024-03-22T11:33:56;10.10;99.90
52849;DHT22;38714;53.180;5.812;2024-03-22T11:36:25;10.20;99.90
52849;DHT22;38714;53.180;5.812;2024-03-22T11:38:50;10.20;99.90
52849;DHT22;38714;53.180;5.812;2024-03-22T11:41:26;10.20;99.90
52849;DHT22;38714;53.180;5.812;2024-03-22T11:43:53;10.30;99.90
52849;DHT22;38714;53.180;5.812;2024-03-22T11:46:19;10.30;99.90
52849;DHT22;38714;53.180;5.812;2024-03-22T11:48:51;10.30;99.90
52849;DHT22;38714;53.180;5.812;2024-03-22T11:51:17;10.20;99.90
52849;DHT22;38714;53.180;5.812;2024-03-22T11:53:49;10.30;99.90
52849;DHT22;38714;53.180;5.812;2024-03-22T11:56:18;10.30;99.90
52849;DHT22;38714;53.180;5.812;2024-03-22T11:58:46;10.30;99.90
52849;DHT22;38714;53.180;5.812;2024-03-22T12:01:13;10.30;99.90
52849;DHT22;38714;53.180;5.812;2024-03-22T12:03:39;10.30;99.90
52849;DHT22;38714;53.180;5.812;2024-03-22T12:06:06;10.30;99.90
52849;DHT22;38714;53.180;5.812;2024-03-22T12:08:31;10.30;99.90
52849;DHT22;38714;53.180;5.812;2024-03-22T12:10:57;10.40;99.90
52849;DHT22;38714;53.180;5.812;2024-03-22T12:13:22;10.40;99.90
52849;DHT22;38714;53.180;5.812;2024-03-22T12:15:48;10.50;99.90
52849;DHT22;38714;53.180;5.812;2024-03-22T12:18:14;10.50;99.90
52849;DHT22;38714;53.180;5.812;2024-03-22T12:20:39;10.50;99.90
52849;DHT22;38714;53.180;5.812;2024-03-22T12:23:05;10.50;99.90
52849;DHT22;38714;53.180;5.812;2024-03-22T12:25:31;10.60;99.90
52849;DHT22;38714;53.180;5.812;2024-03-22T12:27:56;10.60;99.90
52849;DHT22;38714;53.180;5.812;2024-03-22T12:30:22;10.60;99.90
52849;DHT22;38714;53.180;5.812;2024-03-22T12:32:47;10.60;99.90
52849;DHT22;38714;53.180;5.812;2024-03-22T12:35:13;10.60;99.90
52849;DHT22;38714;53.180;5.812;2024-03-22T12:37:38;10.70;99.90
52849;DHT22;38714;53.180;5.812;2024-03-22T12:40:05;10.70;99.90
52849;DHT22;38714;53.180;5.812;2024-03-22T12:42:33;10.70;99.90
52849;DHT22;38714;53.180;5.812;2024-03-22T12:44:59;10.70;99.90
52849;DHT22;38714;53.180;5.812;2024-03-22T12:47:25;10.70;99.90
52849;DHT22;38714;53.180;5.812;2024-03-22T12:49:51;10.70;99.90
52849;DHT22;38714;53.180;5.812;2024-03-22T12:52:16;10.70;99.90
52849;DHT22;38714;53.180;5.812;2024-03-22T12:54:42;10.70;99.90
52849;DHT22;38714;53.180;5.812;2024-03-22T12:57:07;10.70;99.90
52849;DHT22;38714;53.180;5.812;2024-03-22T12:59:33;10.60;99.90
52849;DHT22;38714;53.180;5.812;2024-03-22T13:01:59;10.60;99.90
52849;DHT22;38714;53.180;5.812;2024-03-22T13:04:27;10.60;99.90
52849;DHT22;38714;53.180;5.812;2024-03-22T13:06:52;10.50;99.90
52849;DHT22;38714;53.180;5.812;2024-03-22T13:09:18;10.50;99.90
52849;DHT22;38714;53.180;5.812;2024-03-22T13:11:47;10.40;99.90
52849;DHT22;38714;53.180;5.812;2024-03-22T13:14:14;10.30;99.90
52849;DHT22;38714;53.180;5.812;2024-03-22T13:16:40;10.30;99.90
52849;DHT22;38714;53.180;5.812;2024-03-22T13:19:05;10.30;99.90
52849;DHT22;38714;53.180;5.812;2024-03-22T13:21:34;10.30;99.90
52849;DHT22;38714;53.180;5.812;2024-03-22T13:23:59;10.30;99.90
52849;DHT22;38714;53.180;5.812;2024-03-22T13:26:25;10.30;99.90
52849;DHT22;38714;53.180;5.812;2024-03-22T13:28:51;10.30;99.90
52849;DHT22;38714;53.180;5.812;2024-03-22T13:31:17;10.20;99.90
52849;DHT22;38714;53.180;5.812;2024-03-22T13:33:42;10.30;99.90
52849;DHT22;38714;53.180;5.812;2024-03-22T13:36:08;10.30;99.90
52849;DHT22;38714;53.180;5.812;2024-03-22T13:38:34;10.30;99.90
52849;DHT22;38714;53.180;5.812;2024-03-22T13:40:59;10.30;99.90
52849;DHT22;38714;53.180;5.812;2024-03-22T13:43:29;10.30;99.90
52849;DHT22;38714;53.180;5.812;2024-03-22T13:45:55;10.30;99.90
52849;DHT22;38714;53.180;5.812;2024-03-22T13:48:21;10.30;99.90
52849;DHT22;38714;53.180;5.812;2024-03-22T13:50:57;10.30;99.90
52849;DHT22;38714;53.180;5.812;2024-03-22T13:53:23;10.30;99.90
52849;DHT22;38714;53.180;5.812;2024-03-22T13:55:52;10.30;99.90
52849;DHT22;38714;53.180;5.812;2024-03-22T13:58:18;10.20;99.90
52849;DHT22;38714;53.180;5.812;2024-03-22T14:00:44;10.20;99.90
52849;DHT22;38714;53.180;5.812;2024-03-22T14:03:09;10.30;99.90
52849;DHT22;38714;53.180;5.812;2024-03-22T14:05:35;10.20;99.90
52849;DHT22;38714;53.180;5.812;2024-03-22T14:08:01;10.30;99.90
52849;DHT22;38714;53.180;5.812;2024-03-22T14:10:27;10.30;99.90
52849;DHT22;38714;53.180;5.812;2024-03-22T14:12:53;10.30;99.90
52849;DHT22;38714;53.180;5.812;2024-03-22T14:15:19;10.30;99.90
52849;DHT22;38714;53.180;5.812;2024-03-22T14:17:45;10.30;99.90
52849;DHT22;38714;53.180;5.812;2024-03-22T14:20:10;10.20;99.90
52849;DHT22;38714;53.180;5.812;2024-03-22T14:22:40;10.20;99.90
52849;DHT22;38714;53.180;5.812;2024-03-22T14:25:06;10.20;99.90
52849;DHT22;38714;53.180;5.812;2024-03-22T14:27:33;10.20;99.90
52849;DHT22;38714;53.180;5.812;2024-03-22T14:29:59;10.10;99.90
52849;DHT22;38714;53.180;5.812;2024-03-22T14:32:24;10.10;99.90
52849;DHT22;38714;53.180;5.812;2024-03-22T14:34:51;10.10;99.90
52849;DHT22;38714;53.180;5.812;2024-03-22T14:37:17;10.00;99.90
52849;DHT22;38714;53.180;5.812;2024-03-22T14:39:43;10.00;99.90
52849;DHT22;38714;53.180;5.812;2024-03-22T14:42:08;10.00;99.90
52849;DHT22;38714;53.180;5.812;2024-03-22T14:44:34;10.00;99.90
52849;DHT22;38714;53.180;5.812;2024-03-22T14:46:59;10.00;99.90
52849;DHT22;38714;53.180;5.812;2024-03-22T14:49:25;10.00;99.90
52849;DHT22;38714;53.180;5.812;2024-03-22T14:51:51;10.00;99.90
52849;DHT22;38714;53.180;5.812;2024-03-22T14:54:17;10.00;99.90
52849;DHT22;38714;53.180;5.812;2024-03-22T14:56:43;10.00;99.90
52849;DHT22;38714;53.180;5.812;2024-03-22T14:59:08;10.10;99.90
52849;DHT22;38714;53.180;5.812;2024-03-22T15:01:34;10.00;99.90
52849;DHT22;38714;53.180;5.812;2024-03-22T15:04:01;10.00;99.90
52849;DHT22;38714;53.180;5.812;2024-03-22T15:06:26;10.00;99.90
52849;DHT22;38714;53.180;5.812;2024-03-22T15:08:54;10.00;99.90
52849;DHT22;38714;53.180;5.812;2024-03-22T15:11:20;10.00;99.90
52849;DHT22;38714;53.180;5.812;2024-03-22T15:13:46;10.00;99.90
52849;DHT22;38714;53.180;5.812;2024-03-22T15:16:12;10.00;99.90
52849;DHT22;38714;53.180;5.812;2024-03-22T15:18:39;10.00;99.90
52849;DHT22;38714;53.180;5.812;2024-03-22T15:21:07;10.00;99.90
52849;DHT22;38714;53.180;5.812;2024-03-22T15:23:33;10.00;99.90
52849;DHT22;38714;53.180;5.812;2024-03-22T15:25:58;10.00;99.90
52849;DHT22;38714;53.180;5.812;2024-03-22T15:28:24;10.00;99.90
52849;DHT22;38714;53.180;5.812;2024-03-22T15:30:49;9.90;99.90